This is the latest recevied weather packets stored in our database for station/object KJ5FA-10. If no packets are shown the sender has not sent any weather packets the latest 10 day(s).
| Time | Temp. | Humidity | Pressure | Rain* | Wind** | Luminosity | Snow |
|---|---|---|---|---|---|---|---|
| 1788364465 | 31.67° C | 58% | 1018.9 hPa | 0 mm | - | - | - |
| 1788362665 | 30° C | 62% | 1019 hPa | 0 mm | - | - | - |
| 1788360865 | 29.44° C | 65% | 1018.9 hPa | 0 mm | - | - | - |
| 1788359065 | 28.33° C | 70% | 1019 hPa | 0 mm | - | - | - |
| 1788358165 | 27.78° C | 72% | 1019.1 hPa | 0 mm | - | - | - |
| 1788357264 | 27.22° C | 75% | 1019 hPa | 0 mm | - | - | - |
| 1788356365 | 25.56° C | 81% | 1019.1 hPa | 0 mm | - | - | - |
| 1788355464 | 25.56° C | 82% | 1019.1 hPa | 0 mm | - | - | - |
| 1788354564 | 24.44° C | 85% | 1019.2 hPa | 0 mm | - | - | - |
| 1788352765 | 23.33° C | 94% | 1018.9 hPa | 0 mm | - | - | - |
| 1788351865 | 23.33° C | 94% | 1019 hPa | 0 mm | - | - | - |
| 1788347364 | 23.33° C | 92% | 1018.1 hPa | 0 mm | - | - | - |
| 1788345564 | 23.33° C | 92% | 1018 hPa | 0 mm | - | - | - |
| 1788344665 | 23.33° C | 92% | 1018.1 hPa | 0 mm | - | - | - |
| 1788343764 | 23.33° C | 92% | 1018.1 hPa | 0 mm | - | - | - |
| 1788342864 | 23.89° C | 92% | 1017.7 hPa | 0 mm | - | - | - |
| 1788341964 | 23.89° C | 92% | 1017.8 hPa | 0 mm | - | - | - |
| 1788341064 | 23.89° C | 91% | 1018 hPa | 0 mm | - | - | - |
| 1788340164 | 23.89° C | 91% | 1017.8 hPa | 0 mm | - | - | - |
| 1788339264 | 23.89° C | 90% | 1017.7 hPa | 0 mm | - | - | - |
| 1788338364 | 24.44° C | 89% | 1017.8 hPa | 0 mm | - | - | - |
| 1788337465 | 24.44° C | 88% | 1017.4 hPa | 0 mm | - | - | - |
| 1788336564 | 25° C | 87% | 1017.5 hPa | 0 mm | - | - | - |
| 1788335664 | 25° C | 85% | 1017.5 hPa | 0 mm | - | - | - |
| 1788334764 | 25° C | 84% | 1017.4 hPa | 0 mm | - | - | - |
* Rain latest hour (hover to see other rain measurements)
** Current wind speed in m/s (hover to see current wind gust speed)